createdAt,value
2023-03-15T00:00:16.067Z,2.40
2023-03-15T00:03:24.855Z,1.90
2023-03-15T00:06:34.719Z,2.10
2023-03-15T00:09:42.823Z,2.10
2023-03-15T00:12:50.800Z,2.30
2023-03-15T00:16:03.621Z,2.00
2023-03-15T00:19:12.799Z,2.20
2023-03-15T00:22:23.440Z,1.90
2023-03-15T00:25:31.523Z,2.10
2023-03-15T00:28:40.364Z,2.10
2023-03-15T00:31:48.566Z,2.10
2023-03-15T00:34:56.847Z,1.80
2023-03-15T00:38:05.268Z,2.10
2023-03-15T00:41:16.280Z,2.50
2023-03-15T00:44:24.747Z,2.00
2023-03-15T00:47:33.048Z,2.20
2023-03-15T00:50:40.749Z,2.00
2023-03-15T00:53:50.978Z,2.20
2023-03-15T00:56:59.285Z,2.20
2023-03-15T01:00:09.980Z,2.20
2023-03-15T01:03:18.956Z,2.20
2023-03-15T01:06:29.734Z,2.40
2023-03-15T01:09:37.673Z,2.10
2023-03-15T01:12:46.282Z,2.50
2023-03-15T01:15:54.044Z,2.40
2023-03-15T01:19:02.096Z,2.30
2023-03-15T01:22:10.101Z,2.40
2023-03-15T01:25:18.741Z,2.20
2023-03-15T01:28:26.613Z,2.50
2023-03-15T01:31:35.976Z,2.60
2023-03-15T01:34:44.262Z,2.70
2023-03-15T01:37:55.650Z,2.30
2023-03-15T01:41:03.901Z,2.50
2023-03-15T01:44:17.234Z,2.20
2023-03-15T01:47:27.158Z,2.50
2023-03-15T01:53:44.805Z,2.40
2023-03-15T01:57:00.673Z,2.20
2023-03-15T02:00:13.962Z,2.10
2023-03-15T02:03:27.338Z,2.10
2023-03-15T02:06:36.948Z,2.30
2023-03-15T02:09:55.663Z,2.40
2023-03-15T02:13:05.332Z,2.20
2023-03-15T02:16:14.405Z,2.20
2023-03-15T02:19:43.219Z,2.40
2023-03-15T02:22:57.638Z,2.50
2023-03-15T02:26:19.416Z,2.30
2023-03-15T02:29:30.140Z,2.50
2023-03-15T02:32:38.192Z,2.20
2023-03-15T02:35:46.363Z,2.50
2023-03-15T02:38:56.069Z,2.30
2023-03-15T02:42:04.054Z,2.70
2023-03-15T02:45:14.097Z,2.70
2023-03-15T02:48:23.043Z,2.80
2023-03-15T02:51:34.320Z,2.50
2023-03-15T02:54:43.589Z,2.80
2023-03-15T02:57:51.851Z,2.60
2023-03-15T03:00:59.721Z,2.50
2023-03-15T03:04:08.373Z,2.90
2023-03-15T03:07:16.532Z,2.90
2023-03-15T03:10:25.003Z,2.70
2023-03-15T03:13:32.987Z,2.80
2023-03-15T03:16:40.769Z,2.40
2023-03-15T03:19:48.991Z,2.80
2023-03-15T03:22:57.096Z,2.80
2023-03-15T03:26:05.509Z,2.60
2023-03-15T03:29:16.900Z,2.70
2023-03-15T03:32:24.918Z,2.20
2023-03-15T03:35:34.341Z,2.20
2023-03-15T03:38:42.982Z,2.50
2023-03-15T03:41:51.075Z,2.60
2023-03-15T03:44:59.058Z,2.20
2023-03-15T03:48:09.105Z,2.20
2023-03-15T03:51:16.768Z,2.50
2023-03-15T03:54:24.801Z,2.00
2023-03-15T03:57:33.281Z,2.00
2023-03-15T04:00:41.817Z,2.30
2023-03-15T04:03:50.093Z,2.70
2023-03-15T04:06:57.831Z,2.40
2023-03-15T04:10:06.324Z,2.00
2023-03-15T04:13:14.154Z,2.20
2023-03-15T04:16:24.818Z,2.30
2023-03-15T04:19:33.602Z,1.80
2023-03-15T04:22:41.908Z,2.10
2023-03-15T04:25:55.290Z,1.90
2023-03-15T04:29:04.620Z,2.10
2023-03-15T04:32:13.713Z,1.80
2023-03-15T04:35:28.054Z,1.90
2023-03-15T04:38:35.817Z,2.00
2023-03-15T04:41:43.818Z,2.00
2023-03-15T04:44:51.634Z,2.00
2023-03-15T04:48:01.465Z,2.10
2023-03-15T04:54:15.780Z,2.60
2023-03-15T04:57:23.914Z,2.30
2023-03-15T05:00:31.791Z,2.70
2023-03-15T05:03:39.898Z,2.80
2023-03-15T05:06:47.726Z,3.00
2023-03-15T05:09:55.996Z,3.30
2023-03-15T05:13:04.318Z,2.60
2023-03-15T05:16:12.043Z,3.40
2023-03-15T05:19:20.339Z,3.80
2023-03-15T05:22:28.309Z,3.30
2023-03-15T05:25:38.375Z,3.50
2023-03-15T05:28:46.500Z,2.70
2023-03-15T05:31:55.365Z,3.60
2023-03-15T05:35:03.381Z,3.50
2023-03-15T05:38:14.564Z,3.50
2023-03-15T05:41:22.539Z,3.30
2023-03-15T05:44:30.722Z,3.90
2023-03-15T05:47:39.168Z,3.60
2023-03-15T05:50:47.590Z,3.30
2023-03-15T05:53:55.411Z,3.40
2023-03-15T05:57:03.786Z,3.00
2023-03-15T06:00:16.261Z,2.70
2023-03-15T06:03:24.254Z,3.50
2023-03-15T06:06:33.961Z,3.30
2023-03-15T06:09:42.662Z,3.50
2023-03-15T06:12:55.479Z,3.90
2023-03-15T06:16:03.524Z,2.70
2023-03-15T06:19:11.436Z,4.10
2023-03-15T06:22:20.799Z,3.20
2023-03-15T06:25:29.274Z,3.20
2023-03-15T06:28:37.793Z,3.20
2023-03-15T06:31:46.020Z,2.50
2023-03-15T06:34:54.337Z,3.60
2023-03-15T06:38:02.136Z,3.70
2023-03-15T06:41:12.691Z,3.90
2023-03-15T06:44:21.433Z,3.70
2023-03-15T06:47:29.848Z,4.10
2023-03-15T06:50:46.985Z,3.40
2023-03-15T06:53:56.127Z,2.90
2023-03-15T06:57:04.242Z,3.10
2023-03-15T07:00:18.268Z,3.40
2023-03-15T07:03:26.094Z,3.70
2023-03-15T07:06:34.674Z,3.50
2023-03-15T07:09:43.321Z,3.20
2023-03-15T07:12:51.446Z,4.00
2023-03-15T07:15:59.960Z,4.40
2023-03-15T07:19:08.312Z,4.10
2023-03-15T07:22:16.796Z,3.50
2023-03-15T07:25:26.124Z,3.50
2023-03-15T07:28:34.058Z,4.10
2023-03-15T07:31:41.909Z,4.30
2023-03-15T07:34:49.797Z,4.50
2023-03-15T07:37:58.455Z,4.10
2023-03-15T07:41:09.461Z,3.80
2023-03-15T07:44:18.507Z,4.50
2023-03-15T07:47:26.223Z,4.20
2023-03-15T07:50:34.812Z,4.20
2023-03-15T07:53:42.391Z,3.50
2023-03-15T07:57:42.753Z,3.70
2023-03-15T08:00:51.233Z,3.40
2023-03-15T08:03:59.183Z,2.10
2023-03-15T08:07:07.100Z,3.40
2023-03-15T08:10:16.439Z,2.70
2023-03-15T08:13:24.367Z,3.60
2023-03-15T08:16:32.329Z,3.80
2023-03-15T08:19:40.628Z,3.50
2023-03-15T08:22:50.217Z,3.20
2023-03-15T08:25:58.476Z,3.30
2023-03-15T08:29:28.006Z,3.80
2023-03-15T08:32:35.936Z,2.70
2023-03-15T08:35:44.342Z,3.20
2023-03-15T08:38:52.818Z,3.80
2023-03-15T08:42:01.469Z,2.70
2023-03-15T08:45:11.954Z,3.70
2023-03-15T08:48:19.916Z,3.10
2023-03-15T08:51:28.268Z,2.90
2023-03-15T08:54:36.570Z,3.00
2023-03-15T08:57:45.204Z,3.20
2023-03-15T09:00:54.961Z,2.70
2023-03-15T09:04:04.427Z,2.60
2023-03-15T09:07:12.601Z,3.30
2023-03-15T09:10:22.305Z,2.90
2023-03-15T09:13:31.051Z,3.40
2023-03-15T09:16:39.071Z,2.60
2023-03-15T09:19:47.118Z,3.90
2023-03-15T09:22:59.901Z,3.30
2023-03-15T09:26:08.147Z,3.70
2023-03-15T09:29:16.005Z,3.00
2023-03-15T09:32:23.890Z,2.70
2023-03-15T09:35:32.218Z,3.10
2023-03-15T09:38:42.198Z,2.60
2023-03-15T09:41:56.412Z,3.70
2023-03-15T09:45:22.070Z,3.00
2023-03-15T09:48:38.050Z,2.80
2023-03-15T09:51:52.261Z,2.80
2023-03-15T09:55:06.624Z,2.70
2023-03-15T09:58:21.136Z,3.30
2023-03-15T10:01:36.577Z,3.20
2023-03-15T10:04:49.671Z,3.40
2023-03-15T10:08:00.163Z,3.40
2023-03-15T10:11:22.691Z,3.30
2023-03-15T10:14:59.249Z,3.50
2023-03-15T10:18:42.497Z,3.70
2023-03-15T10:22:02.996Z,3.10
2023-03-15T10:25:20.293Z,3.00
2023-03-15T10:28:34.820Z,3.10
2023-03-15T10:31:48.704Z,3.00
2023-03-15T10:35:00.327Z,3.10
2023-03-15T10:38:17.401Z,4.20
2023-03-15T10:41:43.062Z,3.60
2023-03-15T10:44:51.305Z,2.90
2023-03-15T10:48:01.061Z,3.50
2023-03-15T10:54:27.909Z,3.90
2023-03-15T10:57:41.530Z,3.50
2023-03-15T11:00:55.167Z,2.60
2023-03-15T11:04:19.074Z,3.50
2023-03-15T11:07:27.473Z,3.60
2023-03-15T11:10:39.674Z,2.90
2023-03-15T11:14:02.590Z,3.60
2023-03-15T11:17:19.403Z,3.40
2023-03-15T11:20:36.086Z,3.50
2023-03-15T11:23:48.673Z,3.60
2023-03-15T11:27:01.779Z,3.50
2023-03-15T11:30:18.546Z,3.50
2023-03-15T11:33:44.749Z,2.40
2023-03-15T11:37:07.985Z,3.80
2023-03-15T11:40:26.673Z,3.40
2023-03-15T11:43:51.132Z,3.70
2023-03-15T11:47:06.529Z,3.70
2023-03-15T11:50:17.905Z,3.10
2023-03-15T11:53:32.599Z,4.10
2023-03-15T11:57:07.484Z,3.70
2023-03-15T12:00:52.885Z,3.30
2023-03-15T12:04:44.846Z,3.30
2023-03-15T12:08:25.415Z,2.50
2023-03-15T12:11:46.125Z,3.50
2023-03-15T12:15:17.163Z,2.60
2023-03-15T12:18:46.290Z,2.70
2023-03-15T12:21:58.304Z,2.60
2023-03-15T12:25:17.075Z,2.70
2023-03-15T12:28:31.629Z,2.20
2023-03-15T12:31:55.632Z,2.80
2023-03-15T12:35:24.171Z,2.70
2023-03-15T12:38:42.157Z,2.30
2023-03-15T12:41:52.664Z,2.20
2023-03-15T12:45:41.411Z,2.20
2023-03-15T12:49:12.573Z,2.40
2023-03-15T12:52:44.329Z,2.30
2023-03-15T12:55:59.480Z,2.10
2023-03-15T12:59:23.531Z,2.40
2023-03-15T13:02:43.224Z,2.90
2023-03-15T13:06:05.949Z,2.40
2023-03-15T13:09:27.394Z,2.10
2023-03-15T13:12:46.439Z,3.10
2023-03-15T13:16:16.014Z,2.10
2023-03-15T13:19:28.181Z,1.90
2023-03-15T13:22:55.593Z,2.50
2023-03-15T13:26:21.239Z,2.70
2023-03-15T13:29:33.649Z,2.70
2023-03-15T13:32:41.775Z,2.20
2023-03-15T13:35:56.223Z,2.30
2023-03-15T13:39:11.703Z,2.20
2023-03-15T13:42:26.051Z,2.70
2023-03-15T13:45:33.852Z,2.60
2023-03-15T13:48:46.054Z,2.20
2023-03-15T13:51:56.505Z,2.30
2023-03-15T13:55:05.518Z,2.80
2023-03-15T13:58:14.588Z,2.20
2023-03-15T14:01:24.438Z,2.60
2023-03-15T14:04:36.656Z,2.30
2023-03-15T14:07:48.728Z,2.90
2023-03-15T14:11:11.518Z,2.30
2023-03-15T14:14:29.065Z,2.50
2023-03-15T14:17:37.052Z,2.20
2023-03-15T14:20:49.718Z,2.30
2023-03-15T14:23:58.134Z,2.30
2023-03-15T14:27:14.725Z,2.40
2023-03-15T14:30:28.191Z,3.00
2023-03-15T14:33:43.003Z,2.70
2023-03-15T14:36:54.412Z,2.40
2023-03-15T14:40:17.459Z,2.70
2023-03-15T14:43:25.870Z,2.50
2023-03-15T14:46:34.924Z,2.80
2023-03-15T14:49:42.799Z,2.90
2023-03-15T14:52:52.495Z,2.40
2023-03-15T14:56:00.698Z,2.30
2023-03-15T14:59:15.791Z,2.70
2023-03-15T15:02:24.231Z,2.60
2023-03-15T15:05:35.265Z,3.00
2023-03-15T15:08:48.555Z,2.80
2023-03-15T15:11:57.408Z,2.60
2023-03-15T15:15:11.259Z,2.80
2023-03-15T15:18:21.027Z,2.80
2023-03-15T15:21:34.113Z,2.90
2023-03-15T15:24:42.402Z,3.10
2023-03-15T15:27:50.735Z,2.80
2023-03-15T15:30:58.892Z,2.60
2023-03-15T15:34:06.752Z,2.40
2023-03-15T15:37:16.279Z,2.90
2023-03-15T15:40:29.385Z,3.10
2023-03-15T15:43:37.206Z,3.00
2023-03-15T15:46:52.378Z,3.20
2023-03-15T15:50:02.118Z,2.50
2023-03-15T15:53:16.840Z,2.10
2023-03-15T15:56:28.437Z,2.90
2023-03-15T15:59:36.964Z,2.50
2023-03-15T16:02:45.378Z,3.00
2023-03-15T16:05:54.410Z,2.10
2023-03-15T16:09:03.092Z,2.50
2023-03-15T16:12:19.253Z,3.10
2023-03-15T16:15:27.700Z,2.70
2023-03-15T16:18:38.123Z,2.90
2023-03-15T16:21:51.947Z,3.00
2023-03-15T16:25:02.332Z,3.20
2023-03-15T16:28:12.899Z,2.90
2023-03-15T16:31:23.465Z,2.30
2023-03-15T16:34:34.587Z,2.50
2023-03-15T16:37:45.144Z,2.60
2023-03-15T16:40:54.574Z,2.30
2023-03-15T16:44:03.263Z,2.90
2023-03-15T16:47:12.428Z,2.50
2023-03-15T16:50:21.972Z,2.80
2023-03-15T16:53:31.686Z,2.90
2023-03-15T16:56:41.118Z,2.60
2023-03-15T16:59:50.021Z,2.90
2023-03-15T17:03:00.275Z,2.70
2023-03-15T17:06:15.442Z,3.00
2023-03-15T17:09:25.848Z,2.70
2023-03-15T17:12:34.482Z,3.00
2023-03-15T17:15:42.894Z,2.70
2023-03-15T17:18:51.725Z,2.90
2023-03-15T17:22:00.063Z,2.70
2023-03-15T17:25:09.573Z,2.80
2023-03-15T17:28:19.012Z,2.70
2023-03-15T17:31:29.175Z,2.60
2023-03-15T17:34:37.255Z,2.80
2023-03-15T17:37:45.927Z,2.70
2023-03-15T17:40:54.696Z,2.30
2023-03-15T17:44:02.858Z,2.30
2023-03-15T17:47:13.876Z,2.90
2023-03-15T17:50:23.210Z,3.10
2023-03-15T17:53:32.908Z,3.30
2023-03-15T17:56:41.174Z,2.90
2023-03-15T17:59:49.232Z,2.60
2023-03-15T18:02:57.909Z,2.90
2023-03-15T18:06:06.420Z,2.10
2023-03-15T18:09:17.061Z,2.80
2023-03-15T18:12:26.085Z,2.30
2023-03-15T18:15:35.113Z,2.60
2023-03-15T18:18:43.776Z,2.80
2023-03-15T18:21:52.044Z,2.80
2023-03-15T18:25:00.219Z,3.20
2023-03-15T18:28:08.404Z,2.80
2023-03-15T18:31:20.302Z,3.10
2023-03-15T18:34:28.661Z,3.30
2023-03-15T18:37:36.984Z,2.90
2023-03-15T18:40:45.351Z,3.10
2023-03-15T18:43:54.063Z,2.70
2023-03-15T18:47:02.163Z,3.40
2023-03-15T18:50:13.098Z,3.40
2023-03-15T18:53:21.728Z,3.10
2023-03-15T18:56:34.597Z,3.20
2023-03-15T18:59:43.104Z,3.70
2023-03-15T19:02:51.867Z,3.70
2023-03-15T19:06:04.034Z,3.90
2023-03-15T19:09:12.307Z,3.50
2023-03-15T19:12:20.242Z,3.10
2023-03-15T19:15:29.368Z,3.30
2023-03-15T19:18:41.686Z,3.70
2023-03-15T19:21:49.854Z,3.80
2023-03-15T19:24:58.002Z,4.00
2023-03-15T19:28:06.301Z,3.50
2023-03-15T19:31:14.859Z,4.00
2023-03-15T19:34:25.049Z,3.90
2023-03-15T19:41:13.096Z,3.60
2023-03-15T19:44:22.548Z,3.90
2023-03-15T19:47:33.183Z,3.80
2023-03-15T19:50:41.117Z,3.30
2023-03-15T19:53:49.182Z,3.30
2023-03-15T19:56:58.879Z,3.80
2023-03-15T20:03:14.563Z,3.60
2023-03-15T20:06:22.615Z,3.80
2023-03-15T20:09:30.610Z,3.30
2023-03-15T20:12:42.875Z,3.60
2023-03-15T20:15:51.062Z,3.10
2023-03-15T20:18:58.930Z,3.70
2023-03-15T20:22:07.066Z,3.70
2023-03-15T20:25:17.349Z,3.60
2023-03-15T20:28:25.429Z,3.70
2023-03-15T20:31:33.785Z,3.10
2023-03-15T20:34:45.185Z,3.80
2023-03-15T20:37:53.901Z,3.10
2023-03-15T20:41:02.580Z,3.70
2023-03-15T20:44:11.631Z,4.00
2023-03-15T20:47:19.859Z,4.80
2023-03-15T20:50:28.219Z,4.50
2023-03-15T20:53:38.496Z,5.10
2023-03-15T20:56:46.508Z,4.80
2023-03-15T20:59:55.055Z,4.60
2023-03-15T21:03:03.544Z,4.30
2023-03-15T21:06:12.624Z,5.20
2023-03-15T21:09:20.527Z,5.00
2023-03-15T21:12:28.451Z,4.80
2023-03-15T21:15:36.812Z,4.90
2023-03-15T21:18:45.362Z,4.90
2023-03-15T21:21:53.211Z,4.60
2023-03-15T21:25:02.410Z,4.30
2023-03-15T21:28:10.297Z,5.30
2023-03-15T21:31:18.373Z,4.70
2023-03-15T21:34:26.144Z,4.80
2023-03-15T21:37:34.847Z,5.30
2023-03-15T21:40:43.963Z,4.60
2023-03-15T21:43:51.825Z,4.00
2023-03-15T21:46:59.544Z,4.60
2023-03-15T21:50:09.267Z,4.80
2023-03-15T21:53:17.202Z,5.10
2023-03-15T21:56:26.347Z,4.70
2023-03-15T21:59:34.475Z,4.80
2023-03-15T22:02:43.402Z,4.60
2023-03-15T22:05:51.702Z,4.90
2023-03-15T22:08:59.798Z,4.40
2023-03-15T22:12:08.726Z,4.50
2023-03-15T22:15:17.487Z,4.40
2023-03-15T22:18:28.566Z,4.70
2023-03-15T22:21:36.557Z,4.40
2023-03-15T22:24:44.617Z,4.50
2023-03-15T22:27:52.858Z,4.90
2023-03-15T22:31:01.671Z,4.80
2023-03-15T22:34:09.971Z,4.40
2023-03-15T22:37:17.784Z,4.20
2023-03-15T22:40:27.960Z,4.70
2023-03-15T22:43:36.553Z,4.70
2023-03-15T22:46:44.505Z,4.50
2023-03-15T22:49:54.767Z,4.40
2023-03-15T22:53:02.949Z,4.80
2023-03-15T22:56:10.933Z,4.40
2023-03-15T22:59:18.998Z,4.90
2023-03-15T23:02:26.954Z,4.70
2023-03-15T23:05:35.306Z,4.80
2023-03-15T23:08:43.234Z,4.80
2023-03-15T23:11:51.175Z,4.40
2023-03-15T23:14:59.561Z,4.70
2023-03-15T23:18:08.047Z,4.70
2023-03-15T23:21:17.470Z,4.40
2023-03-15T23:24:28.055Z,4.70
2023-03-15T23:27:35.706Z,5.00
2023-03-15T23:30:46.057Z,5.20
2023-03-15T23:33:54.396Z,4.70
2023-03-15T23:37:02.965Z,5.30
2023-03-15T23:40:15.715Z,4.50
2023-03-15T23:43:24.164Z,4.40
2023-03-15T23:46:36.152Z,5.10
2023-03-15T23:49:44.991Z,4.70
2023-03-15T23:52:53.034Z,4.30
2023-03-15T23:56:01.579Z,4.50
2023-03-15T23:59:09.287Z,5.10
